Time;durP1;ratioP1;P1;durP2;ratioP2;P2;SDS_P1;SDS_P2;PMS_P1;PMS_P2;Temp;Humidity;BMP_temperature;BMP_pressure;BME280_temperature;BME280_humidity;BME280_pressure;Samples;Min_cycle;Max_cycle;Signal;HPM_P1;HPM_P2
2021/01/24 00:01:28;;;;;;;3.65;2.05;;;5.70;91.60;;;;;;4954391;28;20038;-57
2021/01/24 00:03:54;;;;;;;2.10;1.65;;;5.70;91.60;;;;;;4955016;28;20063;-57
2021/01/24 00:06:19;;;;;;;3.25;1.77;;;5.70;91.60;;;;;;4954419;28;20494;-58
2021/01/24 00:08:45;;;;;;;3.78;2.08;;;5.70;91.60;;;;;;4951902;28;20035;-57
2021/01/24 00:11:11;;;;;;;3.95;1.80;;;5.70;91.60;;;;;;4949062;28;20074;-57
2021/01/24 00:13:36;;;;;;;2.78;1.60;;;5.70;91.60;;;;;;4956292;28;20467;-57
2021/01/24 00:16:02;;;;;;;2.35;1.73;;;5.70;91.60;;;;;;4953185;28;20035;-57
2021/01/24 00:18:27;;;;;;;2.00;1.65;;;5.70;91.60;;;;;;4952393;29;20037;-57
2021/01/24 00:20:53;;;;;;;1.85;1.60;;;5.70;91.60;;;;;;4954889;28;20035;-57
2021/01/24 00:23:18;;;;;;;2.45;1.65;;;5.70;91.70;;;;;;4936472;29;20075;-58
2021/01/24 00:25:44;;;;;;;1.98;1.52;;;5.70;91.70;;;;;;4941161;28;20134;-58
2021/01/24 00:28:09;;;;;;;2.17;1.40;;;5.70;91.70;;;;;;4952529;29;20095;-58
2021/01/24 00:30:35;;;;;;;3.85;1.70;;;5.70;91.60;;;;;;4952567;28;20360;-57
2021/01/24 00:33:00;;;;;;;2.83;1.75;;;5.70;91.70;;;;;;4955162;28;20034;-58
2021/01/24 00:35:26;;;;;;;3.83;1.88;;;5.70;91.70;;;;;;4951501;28;20057;-57
2021/01/24 00:37:53;;;;;;;2.97;1.80;;;5.60;91.70;;;;;;4949982;28;20043;-59
2021/01/24 00:40:19;;;;;;;2.13;1.65;;;5.70;91.70;;;;;;4937810;29;20023;-60
2021/01/24 00:42:45;;;;;;;1.63;1.40;;;5.70;91.70;;;;;;4953621;28;20413;-58
2021/01/24 00:45:11;;;;;;;2.13;1.38;;;5.60;91.70;;;;;;4955258;28;20042;-59
2021/01/24 00:47:36;;;;;;;3.25;1.80;;;5.60;91.70;;;;;;4953680;28;20034;-57
2021/01/24 00:50:03;;;;;;;2.33;1.40;;;5.60;91.70;;;;;;4938106;28;20118;-58
2021/01/24 00:52:29;;;;;;;3.00;1.70;;;5.60;91.70;;;;;;4933772;28;20023;-57
2021/01/24 00:54:54;;;;;;;1.90;1.45;;;5.60;91.70;;;;;;4955321;28;20034;-58
2021/01/24 00:57:20;;;;;;;3.90;1.60;;;5.60;91.70;;;;;;4954685;28;20050;-57
2021/01/24 00:59:46;;;;;;;2.35;1.30;;;5.60;91.80;;;;;;4955576;28;20027;-58
2021/01/24 01:02:11;;;;;;;1.92;1.40;;;5.60;91.80;;;;;;4935195;29;20035;-58
2021/01/24 01:04:37;;;;;;;1.70;1.30;;;5.60;91.80;;;;;;4951339;28;20467;-57
2021/01/24 01:07:02;;;;;;;2.88;1.90;;;5.60;91.80;;;;;;4937802;29;20035;-57
2021/01/24 01:09:28;;;;;;;2.85;1.30;;;5.60;91.80;;;;;;4951749;29;20070;-58
2021/01/24 01:11:53;;;;;;;2.35;1.40;;;5.60;91.80;;;;;;4953244;28;20031;-57
2021/01/24 01:14:19;;;;;;;2.00;1.52;;;5.60;91.80;;;;;;4952888;28;20082;-56
2021/01/24 01:16:44;;;;;;;2.47;1.40;;;5.60;91.80;;;;;;4951439;29;20531;-58
2021/01/24 01:19:10;;;;;;;2.97;1.85;;;5.60;91.70;;;;;;4937491;29;20059;-58
2021/01/24 01:21:35;;;;;;;2.33;1.40;;;5.60;91.80;;;;;;4954198;28;20435;-59
2021/01/24 01:24:01;;;;;;;2.58;1.35;;;5.60;91.80;;;;;;4955417;28;20034;-57
2021/01/24 01:26:26;;;;;;;2.22;1.50;;;5.60;91.80;;;;;;4950906;29;20046;-57
2021/01/24 01:28:52;;;;;;;1.23;0.95;;;5.60;91.80;;;;;;4932238;28;20240;-58
2021/01/24 01:31:17;;;;;;;1.92;1.60;;;5.60;91.80;;;;;;4937980;29;20028;-57
2021/01/24 01:33:43;;;;;;;1.60;1.30;;;5.60;91.80;;;;;;4954986;28;20050;-58
2021/01/24 01:36:09;;;;;;;2.15;1.38;;;5.50;91.80;;;;;;4951619;29;20110;-57
2021/01/24 01:38:34;;;;;;;3.45;1.00;;;5.50;91.80;;;;;;4953597;28;20039;-59
2021/01/24 01:41:00;;;;;;;1.45;0.98;;;5.60;91.80;;;;;;4944052;29;20046;-58
2021/01/24 01:43:25;;;;;;;1.50;1.23;;;5.50;91.80;;;;;;4949936;29;20110;-57
2021/01/24 01:45:51;;;;;;;2.95;1.27;;;5.50;91.80;;;;;;4956127;28;20024;-58
2021/01/24 01:48:17;;;;;;;2.35;1.30;;;5.50;91.80;;;;;;4959235;28;20254;-58
2021/01/24 01:50:43;;;;;;;2.83;0.95;;;5.50;91.90;;;;;;4955061;28;20098;-58
2021/01/24 01:53:09;;;;;;;2.45;1.25;;;5.50;91.80;;;;;;4955229;28;20318;-57
2021/01/24 01:55:34;;;;;;;1.20;1.10;;;5.50;91.90;;;;;;4943406;28;20036;-58
2021/01/24 01:58:00;;;;;;;1.65;1.13;;;5.50;91.90;;;;;;4955442;28;20023;-58
2021/01/24 02:00:25;;;;;;;2.03;1.23;;;5.50;91.90;;;;;;4951524;29;20023;-58
2021/01/24 02:03:27;;;;;;;2.35;1.23;;;5.50;91.90;;;;;;4956662;28;20023;-59
2021/01/24 02:06:12;;;;;;;1.92;1.17;;;5.50;91.90;;;;;;4929202;28;20085;-57
2021/01/24 02:08:56;;;;;;;2.58;1.40;;;5.50;91.90;;;;;;4951007;28;20050;-57
2021/01/24 02:11:59;;;;;;;1.90;0.98;;;5.50;91.90;;;;;;4955075;28;20495;-57
2021/01/24 02:14:33;;;;;;;1.60;1.00;;;5.50;91.90;;;;;;4955721;28;20158;-57
2021/01/24 02:17:00;;;;;;;1.75;1.10;;;5.40;91.80;;;;;;4943540;28;20463;-58
2021/01/24 02:19:55;;;;;;;2.40;1.25;;;5.50;91.80;;;;;;4941565;29;20065;-57
2021/01/24 02:22:21;;;;;;;2.03;1.13;;;5.50;91.80;;;;;;4955793;28;20019;-58
2021/01/24 02:24:54;;;;;;;2.42;0.90;;;5.50;91.90;;;;;;4937282;29;20030;-58
2021/01/24 02:27:35;;;;;;;1.60;1.15;;;5.40;91.80;;;;;;4958160;28;20023;-58
2021/01/24 02:30:26;;;;;;;1.17;1.05;;;5.50;91.90;;;;;;4941421;29;20123;-57
2021/01/24 02:33:13;;;;;;;1.63;0.98;;;5.40;91.80;;;;;;4947442;28;20479;-56
2021/01/24 02:35:40;;;;;;;1.15;1.05;;;5.40;91.80;;;;;;4954332;28;20039;-57
2021/01/24 02:38:06;;;;;;;1.45;1.00;;;5.40;91.70;;;;;;4956616;28;20027;-57
2021/01/24 02:40:34;;;;;;;1.08;0.90;;;5.40;91.80;;;;;;4957743;28;20037;-57
2021/01/24 02:43:00;;;;;;;1.48;1.13;;;5.40;91.70;;;;;;4937429;29;20050;-59
2021/01/24 02:45:26;;;;;;;1.35;0.80;;;5.40;91.70;;;;;;4940067;29;20123;-58
2021/01/24 02:47:51;;;;;;;1.52;0.90;;;5.40;91.70;;;;;;4936116;29;20115;-57
2021/01/24 02:50:17;;;;;;;1.42;0.90;;;5.40;91.70;;;;;;4929028;29;20139;-58
2021/01/24 02:52:43;;;;;;;1.02;0.75;;;5.40;91.70;;;;;;4958921;28;20102;-57
2021/01/24 02:55:08;;;;;;;0.75;0.75;;;5.30;91.60;;;;;;4942197;29;20035;-56
2021/01/24 02:57:34;;;;;;;1.55;0.80;;;5.30;91.50;;;;;;4938712;28;20031;-57
2021/01/24 03:00:00;;;;;;;0.80;0.73;;;5.30;91.50;;;;;;4941300;28;20054;-58
2021/01/24 03:02:25;;;;;;;1.65;1.00;;;5.30;91.40;;;;;;4957093;28;20133;-58
2021/01/24 03:04:51;;;;;;;2.05;0.90;;;5.30;91.40;;;;;;4943345;29;20027;-58
2021/01/24 03:07:16;;;;;;;0.77;0.70;;;5.30;91.30;;;;;;4958717;28;20414;-57
2021/01/24 03:09:42;;;;;;;0.73;0.73;;;5.20;91.30;;;;;;4959235;28;20152;-58
2021/01/24 03:12:07;;;;;;;0.80;0.60;;;5.30;91.30;;;;;;4954910;28;20039;-58
2021/01/24 03:14:33;;;;;;;1.15;0.80;;;5.30;91.20;;;;;;4939820;28;20082;-58
2021/01/24 03:16:59;;;;;;;1.17;0.65;;;5.30;91.20;;;;;;4958559;28;20111;-59
2021/01/24 03:19:26;;;;;;;1.10;0.70;;;5.30;91.20;;;;;;4943644;29;20326;-58
2021/01/24 03:21:52;;;;;;;1.85;0.77;;;5.30;91.10;;;;;;4957130;28;20027;-57
2021/01/24 03:24:17;;;;;;;0.98;0.80;;;5.20;91.10;;;;;;4943050;29;20019;-58
2021/01/24 03:26:46;;;;;;;1.45;0.70;;;5.20;91.00;;;;;;4924180;29;20066;-58
2021/01/24 03:29:12;;;;;;;1.85;0.80;;;5.20;91.00;;;;;;4936855;29;20505;-56
2021/01/24 03:31:40;;;;;;;0.93;0.75;;;5.20;91.00;;;;;;4959927;28;20110;-59
2021/01/24 03:34:07;;;;;;;1.05;0.70;;;5.20;91.00;;;;;;4943146;28;20023;-57
2021/01/24 03:36:33;;;;;;;0.95;0.68;;;5.20;91.00;;;;;;4938927;29;20692;-57
2021/01/24 03:38:58;;;;;;;0.80;0.45;;;5.20;91.00;;;;;;4956608;28;20039;-59
2021/01/24 03:41:23;;;;;;;1.20;0.70;;;5.10;91.00;;;;;;4951814;28;20473;-57
2021/01/24 03:43:49;;;;;;;1.38;0.90;;;5.10;91.00;;;;;;4959485;28;20077;-57
2021/01/24 03:46:14;;;;;;;1.20;0.60;;;5.20;91.00;;;;;;4954442;28;20078;-59
2021/01/24 03:48:40;;;;;;;0.57;0.55;;;5.10;91.00;;;;;;4958029;28;20038;-57
2021/01/24 03:51:05;;;;;;;0.57;0.57;;;5.10;90.90;;;;;;4954383;28;20042;-57
2021/01/24 03:53:31;;;;;;;0.57;0.47;;;5.10;90.90;;;;;;4959140;28;20039;-58
2021/01/24 03:55:56;;;;;;;3.20;0.80;;;5.10;90.80;;;;;;4955208;28;20389;-58
2021/01/24 03:58:22;;;;;;;0.55;0.52;;;5.10;90.80;;;;;;4960444;28;20545;-58
2021/01/24 04:00:47;;;;;;;0.73;0.57;;;5.10;90.80;;;;;;4959946;28;20038;-57
2021/01/24 04:03:13;;;;;;;1.00;0.75;;;5.10;90.80;;;;;;4954414;28;20026;-58
2021/01/24 04:05:38;;;;;;;0.47;0.47;;;5.10;90.70;;;;;;4953348;28;20395;-58
2021/01/24 04:08:04;;;;;;;1.83;0.80;;;5.10;90.70;;;;;;4953786;28;20259;-57
2021/01/24 04:10:30;;;;;;;0.77;0.60;;;5.00;90.70;;;;;;4941616;29;20039;-58
2021/01/24 04:12:55;;;;;;;0.98;0.65;;;5.00;90.70;;;;;;4954111;28;20029;-58
2021/01/24 04:15:21;;;;;;;1.02;0.60;;;5.00;90.70;;;;;;4956149;28;20081;-57
2021/01/24 04:17:46;;;;;;;0.50;0.50;;;5.00;90.80;;;;;;4957971;28;20039;-58
2021/01/24 04:20:12;;;;;;;0.60;0.52;;;5.00;90.70;;;;;;4958295;28;20047;-58
2021/01/24 04:22:37;;;;;;;1.40;0.50;;;5.00;90.70;;;;;;4954931;28;20094;-58
2021/01/24 04:25:04;;;;;;;0.63;0.50;;;5.00;90.60;;;;;;4956772;28;20415;-59
2021/01/24 04:27:29;;;;;;;0.65;0.55;;;5.00;90.70;;;;;;4958118;28;20086;-58
2021/01/24 04:29:55;;;;;;;1.17;0.70;;;5.00;90.70;;;;;;4938100;28;20041;-57
2021/01/24 04:32:20;;;;;;;0.93;0.50;;;5.00;90.60;;;;;;4951664;28;20019;-58
2021/01/24 04:34:46;;;;;;;1.08;0.60;;;4.90;90.70;;;;;;4956861;28;20264;-57
2021/01/24 04:37:11;;;;;;;0.45;0.40;;;4.90;90.60;;;;;;4956751;28;20472;-59
2021/01/24 04:39:37;;;;;;;0.50;0.43;;;4.90;90.60;;;;;;4955872;28;20039;-58
2021/01/24 04:42:03;;;;;;;0.60;0.47;;;4.90;90.70;;;;;;4950998;29;20038;-58
2021/01/24 04:44:28;;;;;;;0.52;0.40;;;4.90;90.60;;;;;;4935443;28;20066;-58
2021/01/24 04:46:54;;;;;;;0.93;0.50;;;4.70;90.60;;;;;;4934972;29;20031;-58
2021/01/24 04:49:20;;;;;;;0.63;0.60;;;4.90;90.60;;;;;;4936044;28;20443;-59
2021/01/24 04:51:45;;;;;;;0.50;0.50;;;4.90;90.60;;;;;;4941894;29;20067;-57
2021/01/24 04:54:11;;;;;;;0.50;0.50;;;4.90;90.60;;;;;;4939391;29;20070;-57
2021/01/24 04:56:37;;;;;;;0.35;0.32;;;4.90;90.50;;;;;;4922695;29;20119;-57
2021/01/24 04:59:03;;;;;;;0.60;0.55;;;4.90;90.40;;;;;;4952242;28;20011;-57
2021/01/24 05:01:28;;;;;;;0.43;0.43;;;4.80;90.40;;;;;;4941775;29;20038;-57
2021/01/24 05:03:54;;;;;;;0.40;0.40;;;4.80;90.30;;;;;;4940442;28;20031;-59
2021/01/24 05:06:20;;;;;;;1.05;0.50;;;4.80;90.20;;;;;;4954561;28;20027;-58
2021/01/24 05:08:45;;;;;;;0.40;0.40;;;4.80;90.20;;;;;;4938686;28;20058;-57
2021/01/24 05:11:11;;;;;;;0.45;0.40;;;4.80;90.10;;;;;;4934418;28;20039;-57
2021/01/24 05:13:36;;;;;;;0.40;0.40;;;4.80;90.10;;;;;;4937527;28;20122;-59
2021/01/24 05:16:02;;;;;;;1.42;0.50;;;4.70;90.00;;;;;;4955553;28;20022;-57
2021/01/24 05:18:27;;;;;;;0.65;0.50;;;4.70;89.90;;;;;;4950822;28;20035;-59
2021/01/24 05:20:53;;;;;;;0.57;0.50;;;4.70;90.00;;;;;;4943205;29;20027;-57
2021/01/24 05:23:23;;;;;;;0.55;0.40;;;4.70;90.00;;;;;;4954254;28;20035;-57
2021/01/24 05:25:48;;;;;;;0.60;0.47;;;4.70;90.00;;;;;;4947737;28;20023;-57
2021/01/24 05:28:18;;;;;;;0.50;0.50;;;4.70;90.00;;;;;;4959683;28;20061;-58
2021/01/24 05:30:44;;;;;;;0.50;0.50;;;4.70;90.00;;;;;;4953240;28;20024;-58
2021/01/24 05:33:09;;;;;;;0.40;0.40;;;4.70;90.00;;;;;;4940528;29;20092;-57
2021/01/24 05:35:45;;;;;;;0.70;0.52;;;4.70;90.00;;;;;;4956191;28;20546;-60
2021/01/24 05:38:15;;;;;;;0.30;0.30;;;4.70;89.90;;;;;;4941473;29;20033;-57
2021/01/24 05:40:40;;;;;;;0.30;0.30;;;4.70;90.00;;;;;;4945862;29;20031;-57
2021/01/24 05:43:06;;;;;;;0.50;0.40;;;4.60;89.80;;;;;;4946143;28;20394;-57
2021/01/24 05:45:36;;;;;;;0.40;0.40;;;4.60;89.70;;;;;;4929712;29;20039;-57
2021/01/24 05:48:03;;;;;;;0.40;0.40;;;4.60;89.90;;;;;;4949267;28;20035;-59
2021/01/24 05:50:29;;;;;;;2.33;0.68;;;4.60;89.90;;;;;;4926018;29;20027;-57
2021/01/24 05:52:54;;;;;;;0.52;0.52;;;4.60;89.90;;;;;;4941736;29;20053;-58
2021/01/24 05:55:31;;;;;;;0.85;0.52;;;4.60;89.60;;;;;;4939943;29;20133;-58
2021/01/24 05:57:56;;;;;;;0.40;0.40;;;4.60;89.60;;;;;;4951027;28;20051;-57
2021/01/24 06:00:22;;;;;;;0.70;0.50;;;4.60;89.40;;;;;;4960578;28;20043;-57
2021/01/24 06:02:48;;;;;;;0.50;0.50;;;4.60;90.00;;;;;;4962801;28;20036;-58
2021/01/24 06:05:13;;;;;;;0.52;0.50;;;4.50;89.40;;;;;;4944347;29;20031;-57
2021/01/24 06:07:39;;;;;;;0.90;0.50;;;4.50;89.40;;;;;;4957376;28;20034;-60
2021/01/24 06:10:05;;;;;;;1.77;0.63;;;4.50;89.40;;;;;;4961048;28;20031;-58
2021/01/24 06:12:30;;;;;;;0.95;0.60;;;4.50;89.30;;;;;;4947196;28;20459;-59
2021/01/24 06:14:56;;;;;;;0.73;0.63;;;4.50;89.30;;;;;;4910393;29;20495;-59
2021/01/24 06:17:29;;;;;;;0.50;0.50;;;4.50;89.20;;;;;;4943215;29;20035;-57
2021/01/24 06:19:59;;;;;;;0.85;0.50;;;4.50;89.10;;;;;;4943925;28;20051;-59
2021/01/24 06:22:29;;;;;;;0.60;0.60;;;4.50;88.90;;;;;;4946886;29;20046;-58
2021/01/24 06:24:56;;;;;;;1.05;0.70;;;4.50;88.80;;;;;;4957392;28;20027;-57
2021/01/24 06:27:23;;;;;;;1.02;0.60;;;4.50;88.60;;;;;;4944994;28;20111;-58
2021/01/24 06:29:52;;;;;;;0.80;0.40;;;4.50;88.40;;;;;;4943358;29;20074;-58
2021/01/24 06:32:29;;;;;;;1.10;0.70;;;4.40;88.20;;;;;;4947422;28;20054;-58
2021/01/24 06:34:55;;;;;;;0.50;0.50;;;4.40;88.00;;;;;;4937943;28;20022;-58
2021/01/24 06:37:26;;;;;;;1.02;0.80;;;4.40;87.80;;;;;;4944743;29;20114;-59
2021/01/24 06:39:53;;;;;;;1.23;0.77;;;4.40;87.80;;;;;;4963897;28;20375;-57
2021/01/24 06:42:37;;;;;;;1.00;0.80;;;4.40;87.70;;;;;;4957930;28;20039;-58
2021/01/24 06:45:06;;;;;;;1.50;0.93;;;4.30;87.60;;;;;;4957508;28;20045;-58
2021/01/24 06:47:35;;;;;;;0.88;0.55;;;4.30;87.50;;;;;;4959758;28;20023;-59
2021/01/24 06:50:00;;;;;;;1.20;0.60;;;4.30;87.30;;;;;;4964395;28;20042;-57
2021/01/24 06:52:26;;;;;;;0.93;0.60;;;4.30;87.50;;;;;;4960792;28;20035;-57
2021/01/24 06:54:51;;;;;;;0.80;0.55;;;4.30;87.10;;;;;;4941477;29;20039;-56
2021/01/24 06:57:17;;;;;;;1.42;0.73;;;4.30;86.90;;;;;;4961049;28;20031;-58
2021/01/24 06:59:43;;;;;;;0.75;0.40;;;4.20;86.60;;;;;;4943855;29;20042;-58
2021/01/24 07:02:38;;;;;;;1.98;0.73;;;4.20;86.80;;;;;;4961194;28;20027;-57
2021/01/24 07:05:22;;;;;;;3.05;0.85;;;4.20;86.90;;;;;;4913911;29;20122;-59
2021/01/24 07:07:48;;;;;;;1.17;0.60;;;4.20;86.70;;;;;;4954011;28;20043;-57
2021/01/24 07:10:38;;;;;;;1.63;0.75;;;4.20;86.50;;;;;;4956441;28;20634;-58
2021/01/24 07:13:39;;;;;;;1.35;0.70;;;4.20;86.40;;;;;;4964601;28;20031;-57
2021/01/24 07:16:06;;;;;;;0.65;0.52;;;4.20;86.50;;;;;;4945077;29;20980;-57
2021/01/24 07:18:42;;;;;;;1.27;0.80;;;4.20;86.50;;;;;;4928611;28;20403;-59
2021/01/24 07:21:08;;;;;;;0.45;0.45;;;4.20;86.50;;;;;;4947666;28;20059;-59
2021/01/24 07:23:33;;;;;;;1.60;0.70;;;4.20;86.40;;;;;;4949094;29;20070;-58
2021/01/24 07:26:02;;;;;;;0.73;0.70;;;4.20;86.30;;;;;;4961562;28;20393;-58
2021/01/24 07:28:28;;;;;;;1.38;0.60;;;4.10;86.50;;;;;;4968212;28;20557;-58
2021/01/24 07:31:01;;;;;;;1.70;0.70;;;4.10;86.20;;;;;;4963631;28;20043;-56
2021/01/24 07:33:27;;;;;;;1.05;0.80;;;3.90;86.00;;;;;;4946529;28;20477;-57
2021/01/24 07:35:56;;;;;;;1.33;0.90;;;4.10;86.30;;;;;;4950182;28;20506;-57
2021/01/24 07:38:21;;;;;;;1.75;0.60;;;4.10;86.30;;;;;;4951212;28;20494;-57
2021/01/24 07:40:50;;;;;;;1.23;0.50;;;4.10;86.50;;;;;;4957488;28;20027;-59
2021/01/24 07:43:16;;;;;;;1.30;0.90;;;4.10;86.50;;;;;;4945726;28;20034;-58
2021/01/24 07:45:41;;;;;;;2.67;0.80;;;4.10;86.30;;;;;;4954559;28;20026;-58
2021/01/24 07:48:07;;;;;;;0.68;0.60;;;4.10;86.40;;;;;;4938153;29;20015;-58
2021/01/24 07:50:33;;;;;;;1.58;0.70;;;4.10;86.50;;;;;;4947882;28;20034;-56
2021/01/24 07:52:58;;;;;;;1.85;0.60;;;4.10;86.50;;;;;;4967025;28;20027;-59
2021/01/24 07:55:24;;;;;;;1.90;0.80;;;4.10;86.40;;;;;;4956210;28;20035;-58
2021/01/24 07:57:49;;;;;;;1.50;0.77;;;4.10;86.40;;;;;;4950771;28;20518;-57
2021/01/24 08:00:15;;;;;;;3.65;0.80;;;4.10;86.20;;;;;;4961143;28;20054;-58
2021/01/24 08:02:41;;;;;;;1.13;0.70;;;4.10;86.80;;;;;;4941301;28;20024;-57
2021/01/24 08:05:07;;;;;;;0.93;0.70;;;4.00;86.20;;;;;;4960942;28;20484;-58
2021/01/24 08:07:33;;;;;;;3.05;0.90;;;4.10;86.20;;;;;;4942514;29;20126;-57
2021/01/24 08:09:58;;;;;;;1.33;0.70;;;4.00;85.60;;;;;;4960355;28;20098;-58
2021/01/24 08:12:25;;;;;;;0.60;0.60;;;4.00;85.30;;;;;;4964639;28;20125;-57
2021/01/24 08:14:51;;;;;;;1.08;0.80;;;4.00;84.80;;;;;;4960474;28;20106;-57
2021/01/24 08:17:16;;;;;;;0.93;0.75;;;4.00;84.60;;;;;;4964270;28;20061;-56
2021/01/24 08:19:42;;;;;;;1.58;0.68;;;3.90;84.10;;;;;;4960236;28;20074;-59
2021/01/24 08:22:08;;;;;;;1.75;0.70;;;3.90;83.40;;;;;;4960105;28;20475;-56
2021/01/24 08:24:33;;;;;;;1.98;1.02;;;3.90;83.10;;;;;;4945330;28;20034;-56
2021/01/24 08:26:59;;;;;;;1.95;1.10;;;3.80;82.90;;;;;;4923269;29;20015;-59
2021/01/24 08:29:25;;;;;;;1.65;0.90;;;3.90;82.80;;;;;;4960499;28;20035;-57
2021/01/24 08:31:50;;;;;;;1.77;1.10;;;3.80;82.50;;;;;;4955641;28;20114;-58
2021/01/24 08:34:16;;;;;;;1.70;0.88;;;3.80;82.30;;;;;;4944871;28;20043;-57
2021/01/24 08:36:42;;;;;;;3.42;1.00;;;3.80;82.00;;;;;;4960585;28;20027;-56
2021/01/24 08:39:07;;;;;;;0.93;0.65;;;3.80;81.80;;;;;;4941883;28;20039;-59
2021/01/24 08:41:35;;;;;;;2.17;0.80;;;3.80;81.40;;;;;;4959161;28;20059;-58
2021/01/24 08:44:11;;;;;;;2.45;0.82;;;3.80;80.80;;;;;;4948095;29;20030;-59
2021/01/24 08:46:43;;;;;;;0.75;0.65;;;3.80;80.70;;;;;;4947366;28;20019;-58
2021/01/24 08:49:22;;;;;;;1.63;0.98;;;3.80;80.50;;;;;;4929672;28;20027;-56
2021/01/24 08:51:52;;;;;;;3.17;1.10;;;3.70;80.20;;;;;;4958546;28;20143;-57
2021/01/24 08:54:24;;;;;;;2.08;0.90;;;3.80;80.00;;;;;;4950313;28;20085;-59
2021/01/24 08:56:51;;;;;;;1.88;1.02;;;3.80;79.90;;;;;;4951907;29;20119;-57
2021/01/24 08:59:24;;;;;;;1.52;0.77;;;3.80;79.60;;;;;;4952297;28;20049;-56
2021/01/24 09:01:51;;;;;;;3.65;1.30;;;3.70;79.60;;;;;;4944911;29;20027;-59
2021/01/24 09:04:23;;;;;;;2.03;1.10;;;3.70;79.20;;;;;;4963014;28;20391;-59
2021/01/24 09:07:11;;;;;;;1.27;0.93;;;3.70;79.30;;;;;;4948752;28;20068;-59
2021/01/24 09:09:45;;;;;;;2.10;0.90;;;3.70;79.30;;;;;;4949855;28;20027;-58
2021/01/24 09:12:16;;;;;;;1.17;0.88;;;3.70;79.00;;;;;;4936261;28;20565;-59
2021/01/24 09:14:42;;;;;;;0.95;0.68;;;3.70;78.90;;;;;;4934452;28;20120;-58
2021/01/24 09:17:09;;;;;;;1.95;1.10;;;3.70;78.80;;;;;;4921588;29;20404;-59
2021/01/24 09:19:39;;;;;;;3.00;1.00;;;3.70;78.80;;;;;;4939401;28;20047;-58
2021/01/24 09:22:05;;;;;;;4.20;0.90;;;3.70;78.80;;;;;;4922308;29;20111;-58
2021/01/24 09:24:31;;;;;;;1.27;1.05;;;3.70;78.60;;;;;;4947813;28;20019;-57
2021/01/24 09:26:56;;;;;;;1.33;0.70;;;3.70;78.70;;;;;;4949252;29;20024;-58
2021/01/24 09:29:22;;;;;;;2.15;1.00;;;3.70;78.40;;;;;;4947334;29;20110;-56
2021/01/24 09:31:48;;;;;;;2.28;1.42;;;3.70;78.40;;;;;;4951040;28;20149;-57
2021/01/24 09:34:13;;;;;;;2.10;1.00;;;3.70;78.20;;;;;;4967526;28;20434;-59
2021/01/24 09:36:39;;;;;;;2.33;1.00;;;3.60;77.90;;;;;;4943191;29;20042;-56
2021/01/24 09:39:05;;;;;;;1.85;0.70;;;3.60;77.60;;;;;;4967560;28;20035;-59
2021/01/24 09:41:30;;;;;;;1.83;1.05;;;3.60;77.40;;;;;;4925531;29;20027;-56
2021/01/24 09:43:56;;;;;;;1.80;1.00;;;3.70;77.00;;;;;;4925209;29;20040;-59
2021/01/24 09:46:22;;;;;;;1.58;1.00;;;3.60;77.20;;;;;;4939237;28;20499;-56
2021/01/24 09:48:47;;;;;;;1.20;0.90;;;3.70;77.20;;;;;;4954809;28;20487;-58
2021/01/24 09:51:13;;;;;;;1.42;0.90;;;3.60;77.10;;;;;;4963197;28;20036;-57
2021/01/24 09:53:39;;;;;;;1.85;1.00;;;3.70;76.90;;;;;;4941512;29;20035;-59
2021/01/24 09:56:05;;;;;;;3.78;0.98;;;3.60;76.90;;;;;;4945948;28;20079;-57
2021/01/24 09:58:31;;;;;;;1.67;0.80;;;3.60;76.90;;;;;;4950052;28;20100;-59
2021/01/24 10:00:56;;;;;;;1.08;0.80;;;3.60;76.90;;;;;;4950087;28;20065;-59
2021/01/24 10:03:22;;;;;;;1.83;1.00;;;3.60;76.80;;;;;;4948408;29;20046;-58
2021/01/24 10:05:48;;;;;;;1.38;1.00;;;3.60;76.70;;;;;;4953561;28;20027;-57
2021/01/24 10:08:13;;;;;;;1.45;1.00;;;3.70;76.70;;;;;;4951718;28;20436;-59
2021/01/24 10:10:39;;;;;;;2.40;1.00;;;3.60;76.60;;;;;;4949631;28;20046;-58
2021/01/24 10:13:04;;;;;;;1.45;1.05;;;3.60;76.60;;;;;;4950940;28;20054;-58
2021/01/24 10:15:30;;;;;;;1.95;1.08;;;3.70;76.90;;;;;;4951744;28;20846;-59
2021/01/24 10:17:55;;;;;;;2.25;1.20;;;3.60;76.80;;;;;;4952532;28;20578;-58
2021/01/24 10:20:21;;;;;;;4.45;1.02;;;3.60;76.70;;;;;;4950934;28;20514;-60
2021/01/24 10:22:46;;;;;;;2.35;1.27;;;3.60;77.00;;;;;;4951432;28;20035;-58
2021/01/24 10:25:12;;;;;;;0.80;0.80;;;3.60;76.70;;;;;;4954462;28;20292;-59
2021/01/24 10:27:37;;;;;;;1.83;0.80;;;3.70;76.30;;;;;;4956900;28;20027;-58
2021/01/24 10:30:04;;;;;;;3.05;1.00;;;3.60;76.50;;;;;;4956803;28;20034;-58
2021/01/24 10:32:29;;;;;;;1.95;1.00;;;3.70;76.40;;;;;;4958412;28;20550;-59
2021/01/24 10:34:55;;;;;;;1.85;1.00;;;3.60;76.40;;;;;;4954267;28;20117;-59
2021/01/24 10:37:20;;;;;;;1.75;1.00;;;3.70;76.50;;;;;;4949880;28;20043;-59
2021/01/24 10:39:46;;;;;;;2.30;0.88;;;3.70;76.50;;;;;;4955643;28;20037;-56
2021/01/24 10:42:11;;;;;;;2.08;1.00;;;3.70;76.30;;;;;;4955857;28;20127;-59
2021/01/24 10:44:37;;;;;;;3.38;1.30;;;3.70;76.30;;;;;;4952972;29;20103;-57
2021/01/24 10:47:02;;;;;;;2.65;1.27;;;3.60;76.50;;;;;;4952817;29;20390;-58
2021/01/24 10:49:30;;;;;;;2.42;1.17;;;3.60;76.40;;;;;;4953391;28;20043;-59
2021/01/24 10:51:56;;;;;;;2.05;1.58;;;3.70;76.40;;;;;;4956562;28;20031;-56
2021/01/24 10:54:21;;;;;;;1.83;1.05;;;3.60;76.10;;;;;;4951739;29;20031;-57
2021/01/24 10:56:47;;;;;;;1.45;0.93;;;3.70;76.40;;;;;;4955275;28;20035;-57
2021/01/24 10:59:13;;;;;;;3.17;0.82;;;3.70;76.40;;;;;;4954070;29;20459;-58
2021/01/24 11:01:38;;;;;;;3.42;1.00;;;3.60;76.30;;;;;;4951929;28;20053;-59
2021/01/24 11:04:04;;;;;;;1.42;0.90;;;3.70;76.30;;;;;;4949410;28;20057;-58
2021/01/24 11:06:29;;;;;;;2.80;0.90;;;3.70;75.90;;;;;;4954349;28;20035;-57
2021/01/24 11:08:55;;;;;;;2.22;1.00;;;3.70;76.00;;;;;;4953477;28;20027;-57
2021/01/24 11:11:22;;;;;;;2.30;1.25;;;3.60;75.90;;;;;;4954253;28;20035;-57
2021/01/24 11:13:48;;;;;;;1.67;0.93;;;3.60;75.80;;;;;;4953298;28;20330;-58
2021/01/24 11:16:13;;;;;;;2.03;1.00;;;3.70;75.60;;;;;;4952991;28;20086;-58
2021/01/24 11:18:39;;;;;;;2.42;0.95;;;3.60;75.90;;;;;;4953518;29;20094;-56
2021/01/24 11:21:04;;;;;;;1.75;1.10;;;3.70;75.80;;;;;;4953407;28;20053;-57
2021/01/24 11:23:30;;;;;;;1.48;1.05;;;3.70;75.40;;;;;;4954413;28;20101;-58
2021/01/24 11:25:55;;;;;;;2.03;1.10;;;3.60;75.60;;;;;;4936889;29;20023;-57
2021/01/24 11:28:21;;;;;;;2.30;1.00;;;3.70;75.60;;;;;;4950449;28;20456;-58
2021/01/24 11:30:46;;;;;;;2.30;1.20;;;3.70;75.60;;;;;;4952195;28;20491;-58
2021/01/24 11:33:12;;;;;;;1.90;0.90;;;3.60;76.20;;;;;;4954165;28;20059;-57
2021/01/24 11:35:38;;;;;;;1.10;0.90;;;3.70;75.80;;;;;;4952818;28;20035;-58
2021/01/24 11:38:03;;;;;;;2.15;1.20;;;3.70;75.60;;;;;;4951886;28;20030;-57
2021/01/24 11:40:29;;;;;;;1.83;0.82;;;3.70;75.80;;;;;;4951282;28;20031;-60
2021/01/24 11:42:54;;;;;;;2.67;1.08;;;3.70;75.60;;;;;;4951836;28;20039;-59
2021/01/24 11:45:21;;;;;;;2.08;1.05;;;3.70;75.90;;;;;;4953282;29;20023;-57
2021/01/24 11:47:46;;;;;;;1.40;1.15;;;3.70;75.60;;;;;;4953505;29;20020;-58
2021/01/24 11:50:12;;;;;;;3.05;1.25;;;3.70;75.60;;;;;;4936054;29;20041;-57
2021/01/24 11:52:37;;;;;;;2.42;0.85;;;3.70;75.30;;;;;;4935272;29;20034;-59
2021/01/24 11:55:04;;;;;;;1.50;1.23;;;3.70;75.30;;;;;;4948412;28;20099;-56
2021/01/24 11:57:29;;;;;;;2.72;1.10;;;3.70;75.50;;;;;;4952550;28;20121;-59
2021/01/24 11:59:55;;;;;;;2.45;0.98;;;3.70;75.40;;;;;;4953434;28;20495;-58
2021/01/24 12:02:24;;;;;;;1.60;1.10;;;3.70;76.10;;;;;;4953022;29;20479;-59
2021/01/24 12:04:50;;;;;;;1.23;0.88;;;3.70;75.40;;;;;;4951674;28;20050;-57
2021/01/24 12:07:15;;;;;;;2.92;0.90;;;3.70;75.50;;;;;;4934386;29;20547;-56
2021/01/24 12:09:41;;;;;;;2.83;1.08;;;3.70;75.70;;;;;;4952207;28;20086;-58
2021/01/24 12:12:07;;;;;;;4.45;1.20;;;3.70;75.90;;;;;;4935733;29;20027;-58
2021/01/24 12:14:32;;;;;;;2.25;1.23;;;3.70;75.60;;;;;;4952612;28;20505;-58
2021/01/24 12:16:58;;;;;;;4.43;1.33;;;3.70;75.70;;;;;;4951329;28;20035;-58
2021/01/24 12:19:23;;;;;;;2.05;1.13;;;3.70;75.90;;;;;;4952663;28;20141;-59
2021/01/24 12:21:49;;;;;;;2.17;1.13;;;3.70;75.70;;;;;;4947869;28;20066;-58
2021/01/24 12:24:14;;;;;;;2.08;1.00;;;3.70;75.70;;;;;;4920670;29;20036;-57
2021/01/24 12:26:40;;;;;;;2.80;1.20;;;3.70;75.80;;;;;;4937632;29;20511;-57
2021/01/24 12:29:05;;;;;;;2.53;0.98;;;3.70;75.80;;;;;;4954963;28;20027;-59
2021/01/24 12:31:31;;;;;;;3.40;1.17;;;3.70;75.70;;;;;;4936675;29;20030;-58
2021/01/24 12:33:57;;;;;;;1.33;0.88;;;3.70;75.60;;;;;;4959053;28;20109;-57
2021/01/24 12:36:23;;;;;;;2.85;1.15;;;3.70;75.30;;;;;;4943946;29;20622;-57
2021/01/24 12:38:49;;;;;;;1.48;0.88;;;3.70;75.80;;;;;;4938280;28;20101;-57
2021/01/24 12:41:15;;;;;;;1.65;0.80;;;3.70;75.90;;;;;;4953086;28;20113;-60
2021/01/24 12:43:40;;;;;;;2.22;0.98;;;3.70;75.70;;;;;;4950482;28;20102;-59
2021/01/24 12:46:06;;;;;;;1.40;0.80;;;3.70;75.50;;;;;;4949527;28;20341;-59
2021/01/24 12:48:31;;;;;;;1.75;1.20;;;3.70;75.50;;;;;;4928345;28;20468;-59
2021/01/24 12:50:57;;;;;;;2.63;1.20;;;3.70;76.10;;;;;;4952079;29;20046;-57
2021/01/24 12:53:22;;;;;;;1.35;1.02;;;3.70;75.60;;;;;;4954302;28;20038;-58
2021/01/24 12:55:48;;;;;;;3.80;1.30;;;3.70;75.40;;;;;;4953962;28;20027;-57
2021/01/24 12:58:13;;;;;;;2.42;1.30;;;3.70;75.70;;;;;;4953080;28;20035;-57